Oak Grove, Arkansas
Current Conditions -  °F | °C
As of 8:45 AM on Thursday 30 Oct 2014 (Local Time) from KBBG Reporting Station
Scattered Clouds Scattered Clouds  
Wind Chill: 52°   Ceiling: Unl
Heat Index: 52°   Visibility: 10mi
Dew Point: 43°   Wind: 0mph
Humidity: 71%   Direction: NA
Pressure: 30.13"   Gusts: NA
Location:  36.46°N, 93.44°W
Report Text: KBBG 301345Z 00000KT 10SM SCT200 11/06 A3013
Loading
Personal Weather Stations






























Interactive Weather Map
Tropical Storm Tracking
New forecast layout! Learn more

10-Day Weather Forecast

Advertisements
Track Severe Weather on mobile